Time,TemperatureF,DewpointF,PressureIn,WindDirection,WindDirectionDegrees,WindSpeedMPH,WindSpeedGustMPH,Humidity,HourlyPrecipIn,Conditions,Clouds,dailyrainin,SoftwareType,DateUTC
2013-04-06 00:03:00,53.4,51.8,30.18,NNE,20,3.0,6.0,94,0.00,,,0.02,meteohub,2013-04-06 07:03:00,
2013-04-06 00:08:00,53.4,51.8,30.18,North,349,3.0,8.0,94,0.00,,,0.00,meteohub,2013-04-06 07:08:00,
2013-04-06 00:13:00,53.4,51.8,30.18,NW,314,3.0,8.0,94,0.00,,,0.00,meteohub,2013-04-06 07:13:00,
2013-04-06 00:18:00,53.4,51.8,30.18,NNW,338,1.0,8.0,94,0.00,,,0.00,meteohub,2013-04-06 07:18:00,
2013-04-06 00:23:00,53.4,51.8,30.18,North,349,1.0,7.0,94,0.00,,,0.00,meteohub,2013-04-06 07:23:00,
2013-04-06 00:29:00,53.4,51.8,30.17,North,0,3.0,6.0,94,0.00,,,0.00,meteohub,2013-04-06 07:29:00,
2013-04-06 00:34:00,53.4,51.8,30.18,NNW,336,2.0,4.0,94,0.00,,,0.00,meteohub,2013-04-06 07:34:00,
2013-04-06 00:40:00,53.4,51.8,30.17,ENE,58,2.0,6.0,94,0.00,,,0.00,meteohub,2013-04-06 07:40:00,
2013-04-06 00:45:00,53.4,52.0,30.18,NNE,13,7.0,7.0,95,0.00,,,0.00,meteohub,2013-04-06 07:45:00,
2013-04-06 00:50:00,53.4,52.0,30.18,NNW,330,3.0,7.0,95,0.00,,,0.00,meteohub,2013-04-06 07:50:00,
2013-04-06 00:55:00,53.2,51.8,30.18,North,7,3.0,7.0,95,0.00,,,0.00,meteohub,2013-04-06 07:55:00,
2013-04-06 01:01:00,53.2,51.8,30.18,NNW,336,1.0,5.0,95,0.00,,,0.00,meteohub,2013-04-06 08:01:00,
2013-04-06 01:06:00,53.2,52.2,30.18,North,352,1.0,7.0,96,0.00,,,0.00,meteohub,2013-04-06 08:06:00,
2013-04-06 01:12:00,53.2,52.2,30.18,NNW,348,1.0,7.0,96,0.00,,,0.00,meteohub,2013-04-06 08:12:00,
2013-04-06 01:17:00,53.2,52.2,30.18,NE,49,0.0,3.0,96,0.00,,,0.00,meteohub,2013-04-06 08:17:00,
2013-04-06 01:22:00,53.2,52.2,30.18,NNW,348,1.0,2.0,96,0.00,,,0.00,meteohub,2013-04-06 08:22:00,
2013-04-06 01:27:00,53.2,52.2,30.18,North,1,1.0,2.0,96,0.00,,,0.00,meteohub,2013-04-06 08:27:00,
2013-04-06 01:32:00,53.2,52.2,30.18,NNE,23,1.0,2.0,96,0.00,,,0.00,meteohub,2013-04-06 08:32:00,
2013-04-06 01:37:00,53.4,52.3,30.18,NE,39,0.0,2.0,96,0.00,,,0.00,meteohub,2013-04-06 08:37:00,
2013-04-06 01:42:00,53.4,52.3,30.18,North,359,1.0,2.0,96,0.00,,,0.00,meteohub,2013-04-06 08:42:00,
2013-04-06 01:47:00,53.4,52.3,30.18,North,8,2.0,3.0,96,0.00,,,0.00,meteohub,2013-04-06 08:47:00,
2013-04-06 01:53:00,53.4,52.3,30.18,NNE,15,0.0,3.0,96,0.00,,,0.00,meteohub,2013-04-06 08:53:00,
2013-04-06 01:58:00,53.4,52.3,30.18,North,356,4.0,4.0,96,0.00,,,0.00,meteohub,2013-04-06 08:58:00,
2013-04-06 02:03:00,53.4,52.3,30.18,North,356,0.0,4.0,96,0.00,,,0.00,meteohub,2013-04-06 09:03:00,
2013-04-06 02:09:00,53.4,52.3,30.18,North,8,1.0,4.0,96,0.00,,,0.00,meteohub,2013-04-06 09:09:00,
2013-04-06 02:14:00,53.6,52.7,30.18,North,6,2.0,4.0,97,0.00,,,0.00,meteohub,2013-04-06 09:14:00,
2013-04-06 02:20:00,53.6,52.7,30.18,NNW,328,2.0,3.0,97,0.00,,,0.00,meteohub,2013-04-06 09:20:00,
2013-04-06 02:25:00,53.8,52.9,30.18,NNE,29,1.0,5.0,97,0.00,,,0.00,meteohub,2013-04-06 09:25:00,
2013-04-06 02:30:00,53.8,52.9,30.18,North,5,2.0,5.0,97,0.00,,,0.00,meteohub,2013-04-06 09:30:00,
2013-04-06 02:36:00,53.8,52.9,30.17,NE,34,2.0,4.0,97,0.00,,,0.00,meteohub,2013-04-06 09:36:00,
2013-04-06 02:41:00,53.8,52.9,30.17,NNE,12,2.0,3.0,97,0.00,,,0.00,meteohub,2013-04-06 09:41:00,
2013-04-06 02:47:00,54.0,53.1,30.17,North,359,2.0,4.0,97,0.00,,,0.00,meteohub,2013-04-06 09:47:00,
2013-04-06 02:52:00,54.0,53.1,30.17,NNE,16,1.0,4.0,97,0.00,,,0.00,meteohub,2013-04-06 09:52:00,
2013-04-06 02:57:00,54.0,53.1,30.17,NNE,19,2.0,7.0,97,0.00,,,0.00,meteohub,2013-04-06 09:57:00,
2013-04-06 03:02:00,54.0,52.9,30.17,NNW,348,3.0,7.0,96,0.00,,,0.00,meteohub,2013-04-06 10:02:00,
2013-04-06 03:07:00,54.0,52.9,30.17,North,6,1.0,7.0,96,0.00,,,0.00,meteohub,2013-04-06 10:07:00,
2013-04-06 03:13:00,54.1,53.1,30.17,West,277,1.0,5.0,96,0.00,,,0.00,meteohub,2013-04-06 10:13:00,
2013-04-06 03:18:00,54.1,53.1,30.16,NNW,328,0.0,4.0,96,0.00,,,0.00,meteohub,2013-04-06 10:18:00,
2013-04-06 03:23:00,54.1,53.1,30.16,WNW,295,1.0,4.0,96,0.00,,,0.00,meteohub,2013-04-06 10:23:00,
2013-04-06 03:28:00,54.0,52.9,30.16,North,1,0.0,4.0,96,0.00,,,0.00,meteohub,2013-04-06 10:28:00,
2013-04-06 03:33:00,54.0,52.9,30.15,NNE,20,4.0,4.0,96,0.00,,,0.00,meteohub,2013-04-06 10:33:00,
2013-04-06 03:38:00,54.0,52.9,30.15,WNW,300,2.0,5.0,96,0.00,,,0.00,meteohub,2013-04-06 10:38:00,
2013-04-06 03:44:00,54.0,52.9,30.15,North,3,5.0,9.0,96,0.00,,,0.00,meteohub,2013-04-06 10:44:00,
2013-04-06 03:49:00,54.0,52.5,30.15,North,8,4.0,9.0,95,0.00,,,0.00,meteohub,2013-04-06 10:49:00,
2013-04-06 03:54:00,53.8,52.3,30.16,North,4,4.0,9.0,95,0.00,,,0.00,meteohub,2013-04-06 10:54:00,
2013-04-06 04:00:00,53.8,52.3,30.15,NW,324,3.0,10.0,95,0.00,,,0.00,meteohub,2013-04-06 11:00:00,
2013-04-06 04:05:00,53.8,52.3,30.15,North,1,3.0,10.0,95,0.00,,,0.00,meteohub,2013-04-06 11:05:00,
2013-04-06 04:11:00,53.8,52.3,30.16,NNE,15,3.0,7.0,95,0.00,,,0.00,meteohub,2013-04-06 11:11:00,
2013-04-06 04:17:00,53.8,52.7,30.15,North,4,1.0,6.0,96,0.00,,,0.00,meteohub,2013-04-06 11:17:00,
2013-04-06 04:22:00,53.6,52.5,30.16,NNW,334,1.0,6.0,96,0.00,,,0.00,meteohub,2013-04-06 11:22:00,
2013-04-06 04:27:00,53.6,52.5,30.16,NNW,345,1.0,4.0,96,0.00,,,0.00,meteohub,2013-04-06 11:27:00,
2013-04-06 04:32:00,53.6,52.5,30.16,NNW,333,2.0,3.0,96,0.00,,,0.00,meteohub,2013-04-06 11:32:00,
2013-04-06 04:33:00,53.6,52.5,30.16,NW,314,2.0,3.0,96,0.00,,,0.00,meteohub,2013-04-06 11:33:00,
2013-04-06 04:38:00,53.4,52.3,30.16,North,1,6.0,7.0,96,0.00,,,0.00,meteohub,2013-04-06 11:38:00,
2013-04-06 04:43:00,53.4,52.3,30.16,NNW,347,2.0,7.0,96,0.00,,,0.00,meteohub,2013-04-06 11:43:00,
2013-04-06 04:48:00,53.4,52.3,30.16,North,5,3.0,7.0,96,0.00,,,0.00,meteohub,2013-04-06 11:48:00,
2013-04-06 04:53:00,53.4,52.3,30.16,North,8,4.0,7.0,96,0.00,,,0.00,meteohub,2013-04-06 11:53:00,
2013-04-06 04:59:00,53.4,52.3,30.16,NW,318,1.0,6.0,96,0.00,,,0.00,meteohub,2013-04-06 11:59:00,
2013-04-06 05:04:00,53.2,52.2,30.16,North,11,1.0,6.0,96,0.00,,,0.00,meteohub,2013-04-06 12:04:00,
2013-04-06 05:09:00,53.2,52.2,30.16,NE,35,1.0,5.0,96,0.00,,,0.00,meteohub,2013-04-06 12:09:00,
2013-04-06 05:14:00,53.1,52.0,30.16,NNE,30,2.0,4.0,96,0.00,,,0.00,meteohub,2013-04-06 12:14:00,
2013-04-06 05:19:00,53.1,52.0,30.16,NW,316,2.0,4.0,96,0.00,,,0.00,meteohub,2013-04-06 12:19:00,
2013-04-06 05:24:00,52.9,51.8,30.16,South,176,1.0,4.0,96,0.00,,,0.00,meteohub,2013-04-06 12:24:00,
2013-04-06 05:29:00,53.1,52.0,30.16,WNW,298,0.0,4.0,96,0.00,,,0.00,meteohub,2013-04-06 12:29:00,
2013-04-06 05:34:00,53.1,52.0,30.16,WNW,283,0.0,4.0,96,0.00,,,0.00,meteohub,2013-04-06 12:34:00,
2013-04-06 05:40:00,53.1,52.0,30.16,NNW,331,3.0,4.0,96,0.00,,,0.00,meteohub,2013-04-06 12:40:00,
2013-04-06 05:45:00,52.9,51.8,30.16,NNE,23,2.0,6.0,96,0.00,,,0.00,meteohub,2013-04-06 12:45:00,
2013-04-06 05:50:00,52.9,51.8,30.16,NNE,27,1.0,6.0,96,0.00,,,0.00,meteohub,2013-04-06 12:50:00,
2013-04-06 05:55:00,52.9,51.8,30.17,West,281,1.0,6.0,96,0.00,,,0.00,meteohub,2013-04-06 12:55:00,
2013-04-06 06:01:00,52.9,52.0,30.16,NNE,15,1.0,6.0,97,0.00,,,0.00,meteohub,2013-04-06 13:01:00,
2013-04-06 06:06:00,52.9,52.0,30.17,NNW,340,2.0,7.0,97,0.00,,,0.00,meteohub,2013-04-06 13:06:00,
2013-04-06 06:12:00,52.9,52.0,30.16,North,6,0.0,7.0,97,0.00,,,0.00,meteohub,2013-04-06 13:12:00,
2013-04-06 06:17:00,52.9,52.0,30.17,SSE,166,0.0,7.0,97,0.00,,,0.00,meteohub,2013-04-06 13:17:00,
2013-04-06 06:22:00,52.7,51.6,30.17,North,0,0.0,4.0,96,0.00,,,0.00,meteohub,2013-04-06 13:22:00,
2013-04-06 06:27:00,52.7,51.8,30.17,WNW,296,1.0,4.0,97,0.00,,,0.00,meteohub,2013-04-06 13:27:00,
2013-04-06 06:32:00,52.9,52.0,30.17,SSE,162,1.0,4.0,97,0.00,,,0.00,meteohub,2013-04-06 13:32:00,
2013-04-06 06:37:00,52.9,51.8,30.17,ESE,108,2.0,3.0,96,0.00,,,0.00,meteohub,2013-04-06 13:37:00,
2013-04-06 06:43:00,52.7,51.6,30.17,NE,53,0.0,4.0,96,0.00,,,0.00,meteohub,2013-04-06 13:43:00,
2013-04-06 06:48:00,52.9,52.0,30.17,NNW,342,0.0,4.0,97,0.00,,,0.00,meteohub,2013-04-06 13:48:00,
2013-04-06 06:53:00,52.9,52.0,30.17,North,6,1.0,4.0,97,0.00,,,0.00,meteohub,2013-04-06 13:53:00,
2013-04-06 06:59:00,52.9,52.0,30.17,WNW,297,0.0,3.0,97,0.00,,,0.00,meteohub,2013-04-06 13:59:00,
2013-04-06 07:04:00,52.9,52.0,30.17,NW,314,0.0,3.0,97,0.00,,,0.00,meteohub,2013-04-06 14:04:00,
2013-04-06 07:10:00,53.1,52.2,30.17,North,9,1.0,3.0,97,0.00,,,0.00,meteohub,2013-04-06 14:10:00,
2013-04-06 07:15:00,52.9,52.0,30.17,NW,319,2.0,3.0,97,0.00,,,0.00,meteohub,2013-04-06 14:15:00,
2013-04-06 07:20:00,53.1,52.2,30.18,NNE,19,3.0,3.0,97,0.00,,,0.00,meteohub,2013-04-06 14:20:00,
2013-04-06 07:26:00,53.1,52.2,30.18,North,0,0.0,3.0,97,0.00,,,0.00,meteohub,2013-04-06 14:26:00,
2013-04-06 07:31:00,53.1,52.2,30.18,SSW,204,0.0,3.0,97,0.00,,,0.00,meteohub,2013-04-06 14:31:00,
2013-04-06 07:36:00,53.2,52.3,30.18,NW,305,0.0,3.0,97,0.00,,,0.00,meteohub,2013-04-06 14:36:00,
2013-04-06 07:42:00,53.2,52.3,30.18,East,82,0.0,2.0,97,0.00,,,0.00,meteohub,2013-04-06 14:42:00,
2013-04-06 07:47:00,53.2,52.3,30.18,SE,131,0.0,2.0,97,0.00,,,0.00,meteohub,2013-04-06 14:47:00,
2013-04-06 07:52:00,53.4,52.3,30.17,SW,214,0.0,2.0,96,0.00,,,0.00,meteohub,2013-04-06 14:52:00,
2013-04-06 07:57:00,53.6,52.5,30.17,South,181,1.0,2.0,96,0.00,,,0.00,meteohub,2013-04-06 14:57:00,
2013-04-06 08:02:00,53.8,52.7,30.17,SSW,193,0.0,2.0,96,0.00,,,0.00,meteohub,2013-04-06 15:02:00,
2013-04-06 08:07:00,54.0,52.9,30.17,WSW,248,0.0,2.0,96,0.00,,,0.00,meteohub,2013-04-06 15:07:00,
2013-04-06 08:13:00,54.0,52.9,30.17,North,356,0.0,1.0,96,0.00,,,0.00,meteohub,2013-04-06 15:13:00,
2013-04-06 08:18:00,54.1,53.1,30.17,ESE,120,1.0,1.0,96,0.00,,,0.00,meteohub,2013-04-06 15:18:00,
2013-04-06 08:23:00,54.5,53.4,30.18,SE,136,0.0,2.0,96,0.00,,,0.00,meteohub,2013-04-06 15:23:00,
2013-04-06 08:29:00,54.7,53.2,30.18,North,349,0.0,2.0,95,0.00,,,0.00,meteohub,2013-04-06 15:29:00,
2013-04-06 08:34:00,54.7,53.2,30.18,North,9,0.0,2.0,95,0.00,,,0.00,meteohub,2013-04-06 15:34:00,
2013-04-06 08:40:00,54.9,53.4,30.18,North,9,0.0,2.0,95,0.00,,,0.00,meteohub,2013-04-06 15:40:00,
2013-04-06 08:45:00,54.9,53.4,30.18,SSE,162,0.0,1.0,95,0.00,,,0.00,meteohub,2013-04-06 15:45:00,
2013-04-06 08:50:00,55.0,53.6,30.18,South,174,2.0,2.0,95,0.00,,,0.00,meteohub,2013-04-06 15:50:00,
2013-04-06 08:55:00,55.0,53.4,30.18,SW,226,0.0,3.0,94,0.00,,,0.00,meteohub,2013-04-06 15:55:00,
2013-04-06 09:01:00,55.0,53.6,30.18,SSE,160,3.0,3.0,95,0.01,,,0.01,meteohub,2013-04-06 16:01:00,
2013-04-06 09:07:00,54.9,53.2,30.18,South,176,2.0,3.0,94,0.01,,,0.01,meteohub,2013-04-06 16:07:00,
2013-04-06 09:12:00,55.0,53.6,30.18,South,184,0.0,4.0,95,0.01,,,0.01,meteohub,2013-04-06 16:12:00,
2013-04-06 09:17:00,55.2,53.8,30.18,East,81,0.0,4.0,95,0.01,,,0.01,meteohub,2013-04-06 16:17:00,
2013-04-06 09:22:00,55.2,53.8,30.18,SSE,160,2.0,4.0,95,0.01,,,0.01,meteohub,2013-04-06 16:22:00,
2013-04-06 09:28:00,55.2,53.6,30.18,SE,139,3.0,3.0,94,0.01,,,0.01,meteohub,2013-04-06 16:28:00,
2013-04-06 09:33:00,55.2,53.6,30.18,NNW,327,2.0,5.0,94,0.01,,,0.01,meteohub,2013-04-06 16:33:00,
2013-04-06 09:38:00,55.4,54.0,30.18,NW,323,0.0,5.0,95,0.01,,,0.01,meteohub,2013-04-06 16:38:00,
2013-04-06 09:43:00,55.6,54.1,30.18,South,181,1.0,5.0,95,0.02,,,0.02,meteohub,2013-04-06 16:43:00,
2013-04-06 09:48:00,55.6,54.1,30.18,SW,218,1.0,3.0,95,0.02,,,0.02,meteohub,2013-04-06 16:48:00,
2013-04-06 09:54:00,55.8,54.3,30.17,WSW,255,1.0,3.0,95,0.02,,,0.02,meteohub,2013-04-06 16:54:00,
2013-04-06 09:59:00,55.9,54.5,30.18,SSW,204,1.0,3.0,95,0.01,,,0.02,meteohub,2013-04-06 16:59:00,
2013-04-06 10:04:00,55.8,54.3,30.18,NNW,347,2.0,2.0,95,0.01,,,0.02,meteohub,2013-04-06 17:04:00,
2013-04-06 10:10:00,55.6,54.1,30.18,NNW,335,1.0,2.0,95,0.01,,,0.02,meteohub,2013-04-06 17:10:00,
2013-04-06 10:15:00,55.6,54.5,30.18,WNW,285,0.0,3.0,96,0.01,,,0.02,meteohub,2013-04-06 17:15:00,
2013-04-06 10:20:00,55.8,54.7,30.18,NNE,25,1.0,3.0,96,0.01,,,0.02,meteohub,2013-04-06 17:20:00,
2013-04-06 10:25:00,56.1,55.0,30.18,South,184,0.0,2.0,96,0.01,,,0.02,meteohub,2013-04-06 17:25:00,
2013-04-06 10:30:00,56.5,55.0,30.18,SSW,211,0.0,2.0,95,0.01,,,0.02,meteohub,2013-04-06 17:30:00,
2013-04-06 10:35:00,56.5,55.0,30.18,SW,232,1.0,2.0,95,0.01,,,0.02,meteohub,2013-04-06 17:35:00,
2013-04-06 10:41:00,56.5,54.9,30.18,NNW,330,1.0,4.0,94,0.00,,,0.02,meteohub,2013-04-06 17:41:00,
2013-04-06 10:46:00,56.5,55.0,30.18,North,356,1.0,5.0,95,0.00,,,0.02,meteohub,2013-04-06 17:46:00,
2013-04-06 10:51:00,56.5,54.9,30.18,WNW,290,2.0,6.0,94,0.00,,,0.02,meteohub,2013-04-06 17:51:00,
2013-04-06 10:56:00,56.5,55.0,30.19,ESE,107,1.0,6.0,95,0.00,,,0.02,meteohub,2013-04-06 17:56:00,
2013-04-06 11:02:00,56.3,54.7,30.19,WSW,250,3.0,6.0,94,0.00,,,0.02,meteohub,2013-04-06 18:02:00,
2013-04-06 11:07:00,56.3,54.7,30.19,NW,314,1.0,4.0,94,0.00,,,0.02,meteohub,2013-04-06 18:07:00,
2013-04-06 11:12:00,56.5,54.9,30.20,SE,125,1.0,5.0,94,0.00,,,0.02,meteohub,2013-04-06 18:12:00,
2013-04-06 11:17:00,56.5,54.9,30.20,North,356,2.0,5.0,94,0.00,,,0.02,meteohub,2013-04-06 18:17:00,
2013-04-06 11:22:00,56.5,54.9,30.20,West,278,2.0,5.0,94,0.00,,,0.02,meteohub,2013-04-06 18:22:00,
2013-04-06 11:27:00,56.5,54.9,30.20,North,4,3.0,5.0,94,0.00,,,0.02,meteohub,2013-04-06 18:27:00,
2013-04-06 11:33:00,56.5,54.5,30.21,NNW,333,5.0,5.0,93,0.00,,,0.02,meteohub,2013-04-06 18:33:00,
2013-04-06 11:38:00,56.7,55.0,30.20,NE,43,2.0,6.0,94,0.00,,,0.02,meteohub,2013-04-06 18:38:00,
2013-04-06 11:43:00,56.7,54.7,30.20,NNW,328,6.0,6.0,93,0.00,,,0.02,meteohub,2013-04-06 18:43:00,
2013-04-06 11:48:00,56.7,55.0,30.20,WNW,295,1.0,7.0,94,0.00,,,0.02,meteohub,2013-04-06 18:48:00,
2013-04-06 11:53:00,56.8,54.9,30.21,North,356,4.0,7.0,93,0.00,,,0.02,meteohub,2013-04-06 18:53:00,
2013-04-06 11:59:00,56.8,54.9,30.20,NW,311,2.0,8.0,93,0.00,,,0.02,meteohub,2013-04-06 18:59:00,
2013-04-06 12:04:00,56.8,55.2,30.21,NNW,338,0.0,8.0,94,0.00,,,0.02,meteohub,2013-04-06 19:04:00,
2013-04-06 12:10:00,57.0,55.0,30.20,NW,315,2.0,9.0,93,0.00,,,0.02,meteohub,2013-04-06 19:10:00,
2013-04-06 12:15:00,57.2,55.2,30.20,WNW,286,1.0,9.0,93,0.00,,,0.02,meteohub,2013-04-06 19:15:00,
2013-04-06 12:20:00,57.4,55.0,30.20,NNE,33,1.0,6.0,92,0.00,,,0.02,meteohub,2013-04-06 19:20:00,
2013-04-06 12:25:00,57.4,55.0,30.20,NNW,340,0.0,6.0,92,0.00,,,0.02,meteohub,2013-04-06 19:25:00,
2013-04-06 12:30:00,57.6,55.2,30.20,NNE,22,2.0,6.0,92,0.00,,,0.02,meteohub,2013-04-06 19:30:00,
2013-04-06 12:35:00,57.4,54.9,30.20,North,11,3.0,11.0,91,0.00,,,0.02,meteohub,2013-04-06 19:35:00,
2013-04-06 12:41:00,57.4,54.9,30.20,NNE,17,7.0,11.0,91,0.00,,,0.02,meteohub,2013-04-06 19:41:00,
2013-04-06 12:46:00,57.6,55.2,30.19,NNW,346,1.0,11.0,92,0.00,,,0.02,meteohub,2013-04-06 19:46:00,
2013-04-06 12:51:00,57.9,55.2,30.19,ESE,122,2.0,9.0,91,0.00,,,0.02,meteohub,2013-04-06 19:51:00,
2013-04-06 12:56:00,58.5,55.6,30.19,SW,229,3.0,8.0,90,0.00,,,0.02,meteohub,2013-04-06 19:56:00,
2013-04-06 13:02:00,58.6,55.4,30.19,NW,312,2.0,5.0,89,0.00,,,0.02,meteohub,2013-04-06 20:02:00,
2013-04-06 13:07:00,58.5,55.2,30.19,West,266,2.0,7.0,89,0.00,,,0.02,meteohub,2013-04-06 20:07:00,
2013-04-06 13:12:00,58.5,55.2,30.19,NW,321,1.0,7.0,89,0.00,,,0.02,meteohub,2013-04-06 20:12:00,
2013-04-06 13:17:00,58.6,55.0,30.19,WNW,297,3.0,7.0,88,0.00,,,0.02,meteohub,2013-04-06 20:17:00,
2013-04-06 13:22:00,58.6,55.0,30.19,NNW,342,3.0,6.0,88,0.00,,,0.02,meteohub,2013-04-06 20:22:00,
2013-04-06 13:27:00,58.6,55.0,30.18,North,356,2.0,6.0,88,0.00,,,0.02,meteohub,2013-04-06 20:27:00,
2013-04-06 13:33:00,58.6,55.4,30.18,North,350,4.0,7.0,89,0.00,,,0.02,meteohub,2013-04-06 20:33:00,
2013-04-06 13:38:00,58.5,54.9,30.18,NNW,328,3.0,7.0,88,0.00,,,0.02,meteohub,2013-04-06 20:38:00,
2013-04-06 13:43:00,58.5,54.9,30.18,North,358,3.0,7.0,88,0.00,,,0.02,meteohub,2013-04-06 20:43:00,
2013-04-06 13:48:00,58.5,54.9,30.18,NNW,330,3.0,10.0,88,0.00,,,0.02,meteohub,2013-04-06 20:48:00,
2013-04-06 13:54:00,58.6,55.0,30.18,NNW,341,3.0,10.0,88,0.00,,,0.02,meteohub,2013-04-06 20:54:00,
2013-04-06 14:00:00,59.0,55.4,30.19,ENE,71,3.0,10.0,88,0.00,,,0.02,meteohub,2013-04-06 21:00:00,
2013-04-06 14:05:00,59.2,55.4,30.18,ENE,61,2.0,10.0,87,0.00,,,0.02,meteohub,2013-04-06 21:05:00,
2013-04-06 14:10:00,59.9,55.4,30.18,NW,314,3.0,10.0,85,0.00,,,0.02,meteohub,2013-04-06 21:10:00,
2013-04-06 14:16:00,60.3,55.8,30.18,SW,232,3.0,11.0,85,0.00,,,0.02,meteohub,2013-04-06 21:16:00,
2013-04-06 14:21:00,60.6,56.1,30.18,NW,314,4.0,11.0,85,0.00,,,0.02,meteohub,2013-04-06 21:21:00,
2013-04-06 14:27:00,60.6,55.4,30.18,NNW,340,3.0,9.0,83,0.00,,,0.02,meteohub,2013-04-06 21:27:00,
2013-04-06 14:32:00,61.2,55.9,30.18,WNW,283,4.0,13.0,83,0.00,,,0.02,meteohub,2013-04-06 21:32:00,
2013-04-06 14:37:00,60.8,55.6,30.17,North,4,3.0,13.0,83,0.00,,,0.02,meteohub,2013-04-06 21:37:00,
2013-04-06 14:42:00,61.0,55.4,30.17,NNW,331,6.0,12.0,82,0.00,,,0.02,meteohub,2013-04-06 21:42:00,
2013-04-06 14:47:00,61.2,55.6,30.17,WNW,298,4.0,11.0,82,0.00,,,0.02,meteohub,2013-04-06 21:47:00,
2013-04-06 14:52:00,61.2,55.2,30.18,WNW,300,6.0,9.0,81,0.00,,,0.02,meteohub,2013-04-06 21:52:00,
2013-04-06 14:57:00,61.3,55.4,30.17,North,5,9.0,10.0,81,0.00,,,0.02,meteohub,2013-04-06 21:57:00,
2013-04-06 15:02:00,61.3,55.4,30.17,NE,52,4.0,14.0,81,0.00,,,0.02,meteohub,2013-04-06 22:02:00,
2013-04-06 15:07:00,61.7,55.8,30.17,NW,325,5.0,14.0,81,0.00,,,0.02,meteohub,2013-04-06 22:07:00,
2013-04-06 15:12:00,60.6,54.7,30.17,North,356,9.0,13.0,81,0.00,,,0.02,meteohub,2013-04-06 22:12:00,
2013-04-06 15:17:00,60.3,54.7,30.17,NNE,27,5.0,14.0,82,0.00,,,0.02,meteohub,2013-04-06 22:17:00,
2013-04-06 15:22:00,60.1,54.5,30.17,NNE,15,12.0,14.0,82,0.00,,,0.02,meteohub,2013-04-06 22:22:00,
2013-04-06 15:27:00,59.7,54.5,30.17,NW,316,8.0,15.0,83,0.00,,,0.02,meteohub,2013-04-06 22:27:00,
2013-04-06 15:32:00,59.5,54.3,30.17,North,1,10.0,17.0,83,0.00,,,0.02,meteohub,2013-04-06 22:32:00,
2013-04-06 15:38:00,59.7,54.5,30.17,NW,322,7.0,17.0,83,0.00,,,0.02,meteohub,2013-04-06 22:38:00,
2013-04-06 15:43:00,60.1,54.9,30.17,North,356,14.0,17.0,83,0.00,,,0.02,meteohub,2013-04-06 22:43:00,
2013-04-06 15:48:00,59.5,54.3,30.17,NNW,335,7.0,16.0,83,0.00,,,0.02,meteohub,2013-04-06 22:48:00,
2013-04-06 15:53:00,59.4,54.5,30.17,North,11,10.0,18.0,84,0.00,,,0.02,meteohub,2013-04-06 22:53:00,
2013-04-06 15:58:00,59.2,54.7,30.17,NNE,20,4.0,18.0,85,0.00,,,0.02,meteohub,2013-04-06 22:58:00,
2013-04-06 16:04:00,58.6,54.5,30.17,NE,39,7.0,18.0,86,0.00,,,0.02,meteohub,2013-04-06 23:04:00,
2013-04-06 16:09:00,58.3,54.1,30.17,North,0,6.0,18.0,86,0.00,,,0.02,meteohub,2013-04-06 23:09:00,
2013-04-06 16:14:00,58.1,54.0,30.17,North,356,6.0,18.0,86,0.00,,,0.02,meteohub,2013-04-06 23:14:00,
2013-04-06 16:19:00,57.9,53.8,30.17,North,4,7.0,17.0,86,0.00,,,0.02,meteohub,2013-04-06 23:19:00,
2013-04-06 16:24:00,58.3,53.8,30.17,East,85,4.0,17.0,85,0.00,,,0.02,meteohub,2013-04-06 23:24:00,
2013-04-06 16:29:00,58.8,54.0,30.17,North,4,8.0,16.0,84,0.00,,,0.02,meteohub,2013-04-06 23:29:00,
2013-04-06 16:34:00,58.6,53.8,30.17,WNW,285,5.0,16.0,84,0.00,,,0.02,meteohub,2013-04-06 23:34:00,
2013-04-06 16:39:00,58.5,53.6,30.17,NNE,26,4.0,10.0,84,0.00,,,0.02,meteohub,2013-04-06 23:39:00,
2013-04-06 16:45:00,58.1,53.6,30.16,NNW,338,9.0,11.0,85,0.00,,,0.02,meteohub,2013-04-06 23:45:00,
2013-04-06 16:50:00,57.6,53.1,30.16,North,8,8.0,15.0,85,0.00,,,0.02,meteohub,2013-04-06 23:50:00,
2013-04-06 16:55:00,57.4,53.2,30.16,NNE,31,8.0,15.0,86,0.00,,,0.02,meteohub,2013-04-06 23:55:00,
2013-04-06 17:00:00,57.2,53.4,30.16,WNW,297,3.0,15.0,87,0.00,,,0.02,meteohub,2013-04-07 00:00:00,
2013-04-06 17:05:00,57.6,53.4,30.16,NNW,335,8.0,14.0,86,0.00,,,0.02,meteohub,2013-04-07 00:05:00,
2013-04-06 17:11:00,57.6,53.1,30.16,North,0,8.0,14.0,85,0.00,,,0.02,meteohub,2013-04-07 00:11:00,
2013-04-06 17:16:00,57.4,53.2,30.16,NNE,29,5.0,13.0,86,0.00,,,0.02,meteohub,2013-04-07 00:16:00,
2013-04-06 17:22:00,57.6,53.4,30.16,NNE,33,4.0,16.0,86,0.00,,,0.02,meteohub,2013-04-07 00:22:00,
2013-04-06 17:27:00,57.7,53.6,30.16,NNE,25,5.0,16.0,86,0.00,,,0.02,meteohub,2013-04-07 00:27:00,
2013-04-06 17:32:00,57.7,53.6,30.15,North,6,4.0,12.0,86,0.00,,,0.02,meteohub,2013-04-07 00:32:00,
2013-04-06 17:37:00,57.6,53.1,30.16,NE,34,3.0,12.0,85,0.00,,,0.02,meteohub,2013-04-07 00:37:00,
2013-04-06 17:42:00,57.4,53.2,30.15,West,265,1.0,11.0,86,0.00,,,0.02,meteohub,2013-04-07 00:42:00,
2013-04-06 17:47:00,57.6,53.4,30.15,NE,56,2.0,11.0,86,0.00,,,0.02,meteohub,2013-04-07 00:47:00,
2013-04-06 17:52:00,57.6,53.4,30.15,NNE,20,5.0,11.0,86,0.00,,,0.02,meteohub,2013-04-07 00:52:00,
2013-04-06 17:57:00,57.4,53.2,30.15,NW,307,2.0,9.0,86,0.00,,,0.02,meteohub,2013-04-07 00:57:00,
2013-04-06 18:03:00,57.0,52.9,30.15,North,354,6.0,9.0,86,0.00,,,0.02,meteohub,2013-04-07 01:03:00,
2013-04-06 18:08:00,56.8,52.7,30.15,North,5,5.0,14.0,86,0.00,,,0.02,meteohub,2013-04-07 01:08:00,
2013-04-06 18:13:00,56.5,52.3,30.15,NNW,338,10.0,14.0,86,0.00,,,0.02,meteohub,2013-04-07 01:13:00,
2013-04-06 18:18:00,56.5,52.7,30.15,East,85,3.0,14.0,87,0.00,,,0.02,meteohub,2013-04-07 01:18:00,
2013-04-06 18:23:00,56.3,52.5,30.15,NE,45,8.0,14.0,87,0.00,,,0.02,meteohub,2013-04-07 01:23:00,
2013-04-06 18:29:00,56.1,52.3,30.15,NW,315,4.0,13.0,87,0.00,,,0.02,meteohub,2013-04-07 01:29:00,
2013-04-06 18:34:00,56.1,52.3,30.15,NNE,25,5.0,14.0,87,0.00,,,0.02,meteohub,2013-04-07 01:34:00,
2013-04-06 18:40:00,56.1,52.3,30.15,North,9,6.0,14.0,87,0.00,,,0.02,meteohub,2013-04-07 01:40:00,
2013-04-06 18:45:00,56.1,52.3,30.15,NNE,16,10.0,10.0,87,0.00,,,0.02,meteohub,2013-04-07 01:45:00,
2013-04-06 18:51:00,55.9,52.5,30.14,NW,316,3.0,10.0,88,0.00,,,0.02,meteohub,2013-04-07 01:51:00,
2013-04-06 18:56:00,55.9,52.5,30.15,NE,53,4.0,10.0,88,0.00,,,0.02,meteohub,2013-04-07 01:56:00,
2013-04-06 19:01:00,55.8,52.3,30.15,North,352,12.0,12.0,88,0.00,,,0.02,meteohub,2013-04-07 02:01:00,
2013-04-06 19:07:00,55.6,52.2,30.15,NNW,335,8.0,12.0,88,0.00,,,0.02,meteohub,2013-04-07 02:07:00,
2013-04-06 19:12:00,55.6,52.2,30.15,NNE,18,3.0,12.0,88,0.00,,,0.02,meteohub,2013-04-07 02:12:00,
2013-04-06 19:17:00,55.6,52.2,30.15,NNE,26,5.0,12.0,88,0.00,,,0.02,meteohub,2013-04-07 02:17:00,
2013-04-06 19:22:00,55.6,52.3,30.15,North,11,8.0,12.0,89,0.00,,,0.02,meteohub,2013-04-07 02:22:00,
2013-04-06 19:27:00,55.4,52.2,30.15,NW,323,2.0,11.0,89,0.00,,,0.02,meteohub,2013-04-07 02:27:00,
2013-04-06 19:32:00,55.2,51.8,30.15,NNE,20,5.0,11.0,88,0.00,,,0.02,meteohub,2013-04-07 02:32:00,
2013-04-06 19:37:00,55.0,51.8,30.15,NNE,18,9.0,14.0,89,0.00,,,0.02,meteohub,2013-04-07 02:37:00,
2013-04-06 19:42:00,55.0,51.8,30.15,North,352,7.0,14.0,89,0.00,,,0.02,meteohub,2013-04-07 02:42:00,
2013-04-06 19:47:00,54.9,51.6,30.15,NNW,338,2.0,11.0,89,0.00,,,0.02,meteohub,2013-04-07 02:47:00,
2013-04-06 19:53:00,54.9,51.6,30.16,NNE,12,3.0,12.0,89,0.00,,,0.02,meteohub,2013-04-07 02:53:00,
2013-04-06 19:58:00,54.9,51.6,30.16,NNE,20,3.0,12.0,89,0.00,,,0.02,meteohub,2013-04-07 02:58:00,
2013-04-06 20:04:00,54.9,51.6,30.15,NNE,23,2.0,12.0,89,0.00,,,0.02,meteohub,2013-04-07 03:04:00,
2013-04-06 20:09:00,54.7,51.4,30.16,North,359,5.0,9.0,89,0.00,,,0.02,meteohub,2013-04-07 03:09:00,
2013-04-06 20:15:00,54.7,51.4,30.15,NNE,29,5.0,11.0,89,0.00,,,0.02,meteohub,2013-04-07 03:15:00,
2013-04-06 20:20:00,54.7,51.4,30.15,NNW,342,3.0,11.0,89,0.00,,,0.02,meteohub,2013-04-07 03:20:00,
2013-04-06 20:25:00,54.7,51.3,30.16,NNE,21,5.0,11.0,88,0.00,,,0.02,meteohub,2013-04-07 03:25:00,
2013-04-06 20:30:00,54.5,51.3,30.16,NW,323,2.0,10.0,89,0.00,,,0.02,meteohub,2013-04-07 03:30:00,
2013-04-06 20:36:00,54.5,51.1,30.16,NE,34,2.0,13.0,88,0.00,,,0.02,meteohub,2013-04-07 03:36:00,
2013-04-06 20:41:00,54.5,51.1,30.16,NNE,25,1.0,13.0,88,0.00,,,0.02,meteohub,2013-04-07 03:41:00,
2013-04-06 20:46:00,54.3,50.9,30.17,North,8,2.0,13.0,88,0.00,,,0.02,meteohub,2013-04-07 03:46:00,
2013-04-06 20:52:00,54.3,50.9,30.17,North,358,3.0,11.0,88,0.00,,,0.02,meteohub,2013-04-07 03:52:00,
2013-04-06 20:57:00,54.5,51.1,30.17,NE,39,0.0,11.0,88,0.00,,,0.02,meteohub,2013-04-07 03:57:00,
2013-04-06 21:00:00,54.3,50.9,30.17,NNE,16,2.0,9.0,88,0.00,,,0.02,meteohub,2013-04-07 04:00:00,
2013-04-06 21:01:00,54.3,50.9,30.17,North,356,5.0,9.0,88,0.00,,,0.02,meteohub,2013-04-07 04:01:00,
2013-04-06 21:02:00,54.3,50.9,30.16,NNW,336,4.0,9.0,88,0.00,,,0.02,meteohub,2013-04-07 04:02:00,
2013-04-06 21:07:00,54.3,51.1,30.17,NW,305,4.0,7.0,89,0.00,,,0.02,meteohub,2013-04-07 04:07:00,
2013-04-06 21:12:00,54.1,50.7,30.17,NNW,340,2.0,10.0,88,0.00,,,0.02,meteohub,2013-04-07 04:12:00,
2013-04-06 21:17:00,54.1,50.7,30.16,NNE,22,7.0,10.0,88,0.00,,,0.02,meteohub,2013-04-07 04:17:00,
2013-04-06 21:22:00,54.0,50.5,30.17,North,4,0.0,11.0,88,0.00,,,0.02,meteohub,2013-04-07 04:22:00,
2013-04-06 21:28:00,54.0,50.5,30.17,NE,51,2.0,11.0,88,0.00,,,0.02,meteohub,2013-04-07 04:28:00,
2013-04-06 21:33:00,54.0,50.5,30.17,NNE,29,1.0,10.0,88,0.00,,,0.02,meteohub,2013-04-07 04:33:00,
2013-04-06 21:38:00,54.0,50.5,30.17,North,9,3.0,8.0,88,0.00,,,0.02,meteohub,2013-04-07 04:38:00,
2013-04-06 21:43:00,54.0,50.5,30.17,NE,43,1.0,5.0,88,0.00,,,0.02,meteohub,2013-04-07 04:43:00,
2013-04-06 21:49:00,54.0,50.5,30.17,North,1,5.0,6.0,88,0.00,,,0.02,meteohub,2013-04-07 04:49:00,
2013-04-06 21:54:00,54.0,50.5,30.17,North,356,5.0,7.0,88,0.00,,,0.02,meteohub,2013-04-07 04:54:00,
2013-04-06 21:59:00,54.0,50.5,30.18,North,0,2.0,8.0,88,0.00,,,0.02,meteohub,2013-04-07 04:59:00,
2013-04-06 22:04:00,54.0,50.5,30.18,NW,322,0.0,10.0,88,0.00,,,0.02,meteohub,2013-04-07 05:04:00,
2013-04-06 22:09:00,54.0,50.5,30.18,North,352,2.0,10.0,88,0.00,,,0.02,meteohub,2013-04-07 05:09:00,
2013-04-06 22:15:00,54.0,50.5,30.18,North,358,3.0,10.0,88,0.00,,,0.02,meteohub,2013-04-07 05:15:00,
2013-04-06 22:20:00,53.8,50.4,30.18,North,0,5.0,5.0,88,0.00,,,0.02,meteohub,2013-04-07 05:20:00,
2013-04-06 22:25:00,53.6,50.2,30.18,ENE,58,1.0,7.0,88,0.00,,,0.02,meteohub,2013-04-07 05:25:00,
2013-04-06 22:30:00,53.6,50.2,30.18,NNW,344,3.0,7.0,88,0.00,,,0.02,meteohub,2013-04-07 05:30:00,
2013-04-06 22:36:00,53.4,50.2,30.18,North,350,3.0,7.0,89,0.00,,,0.02,meteohub,2013-04-07 05:36:00,
2013-04-06 22:42:00,53.4,50.2,30.18,NNW,340,3.0,7.0,89,0.00,,,0.02,meteohub,2013-04-07 05:42:00,
2013-04-06 22:47:00,53.4,50.2,30.18,NNE,19,2.0,7.0,89,0.00,,,0.02,meteohub,2013-04-07 05:47:00,
2013-04-06 22:52:00,53.4,50.2,30.19,NW,325,2.0,8.0,89,0.00,,,0.02,meteohub,2013-04-07 05:52:00,
2013-04-06 22:57:00,53.6,50.4,30.18,NNW,348,1.0,9.0,89,0.00,,,0.02,meteohub,2013-04-07 05:57:00,
2013-04-06 23:02:00,53.6,50.4,30.18,WNW,285,1.0,9.0,89,0.00,,,0.02,meteohub,2013-04-07 06:02:00,
2013-04-06 23:07:00,53.8,50.5,30.18,NNE,12,3.0,6.0,89,0.00,,,0.02,meteohub,2013-04-07 06:07:00,
2013-04-06 23:12:00,53.8,50.5,30.18,NNE,13,3.0,7.0,89,0.00,,,0.02,meteohub,2013-04-07 06:12:00,
2013-04-06 23:17:00,54.0,50.7,30.18,North,1,0.0,7.0,89,0.00,,,0.02,meteohub,2013-04-07 06:17:00,
2013-04-06 23:22:00,54.0,50.7,30.18,NNW,346,0.0,7.0,89,0.00,,,0.02,meteohub,2013-04-07 06:22:00,
2013-04-06 23:27:00,54.0,50.7,30.18,NNW,342,0.0,6.0,89,0.00,,,0.02,meteohub,2013-04-07 06:27:00,
2013-04-06 23:32:00,54.0,50.7,30.18,NW,325,1.0,7.0,89,0.00,,,0.02,meteohub,2013-04-07 06:32:00,
2013-04-06 23:37:00,53.8,50.5,30.18,North,358,2.0,7.0,89,0.00,,,0.02,meteohub,2013-04-07 06:37:00,
2013-04-06 23:42:00,53.8,50.5,30.18,NNW,348,3.0,7.0,89,0.00,,,0.02,meteohub,2013-04-07 06:42:00,
2013-04-06 23:47:00,53.6,50.7,30.18,North,11,7.0,8.0,90,0.00,,,0.02,meteohub,2013-04-07 06:47:00,
2013-04-06 23:52:00,53.6,50.7,30.18,NNW,342,1.0,8.0,90,0.00,,,0.02,meteohub,2013-04-07 06:52:00,
2013-04-06 23:57:00,53.4,50.5,30.18,NNE,27,6.0,8.0,90,0.00,,,0.02,meteohub,2013-04-07 06:57:00,